Time;durP1;ratioP1;P1;durP2;ratioP2;P2;SDS_P1;SDS_P2;PMS_P1;PMS_P2;Temp;Humidity;BMP_temperature;BMP_pressure;BME280_temperature;BME280_humidity;BME280_pressure;Samples;Min_cycle;Max_cycle;Signal;HPM_P1;HPM_P2
2022/04/28 00:02:05;;;;;;;6.60;5.15;;;;;;;;;;5095282;28;20135;-58
2022/04/28 00:05:13;;;;;;;6.35;4.95;;;;;;;;;;5107661;28;20029;-56
2022/04/28 00:08:00;;;;;;;6.25;5.55;;;;;;;;;;5006975;28;20076;-57
2022/04/28 00:10:35;;;;;;;6.80;4.95;;;;;;;;;;5089198;28;20051;-58
2022/04/28 00:13:48;;;;;;;6.18;5.07;;;;;;;;;;5108856;28;20047;-57
2022/04/28 00:19:24;;;;;;;;;;;;;;;;;;5005448;28;20053;-55
2022/04/28 00:25:25;;;;;;;4.97;4.35;;;;;;;;;;5086940;28;20374;-57
2022/04/28 00:34:39;;;;;;;7.40;5.90;;;;;;;;;;5046379;28;20422;-57
2022/04/28 00:37:36;;;;;;;;;;;;;;;;;;;;;
2022/04/28 00:43:28;;;;;;;7.30;5.68;;;;;;;;;;5106886;28;20028;-57
2022/04/28 00:46:19;;;;;;;6.95;4.35;;;;;;;;;;5106747;28;20036;-57
2022/04/28 00:52:29;;;;;;;;;;;;;;;;;;;;;
2022/04/28 00:55:28;;;;;;;7.05;5.72;;;;;;;;;;5107394;28;20052;-58
2022/04/28 00:58:22;;;;;;;6.70;5.38;;;;;;;;;;5005615;28;20102;-58
2022/04/28 01:01:16;;;;;;;7.47;5.70;;;;;;;;;;5006130;28;20041;-57
2022/04/28 01:04:04;;;;;;;5.68;5.18;;;;;;;;;;5088625;28;20046;-57
2022/04/28 01:06:56;;;;;;;7.57;5.28;;;;;;;;;;5106879;28;20385;-57
2022/04/28 01:09:41;;;;;;;6.80;5.63;;;;;;;;;;5107494;28;20036;-57
2022/04/28 01:12:36;;;;;;;6.78;5.80;;;;;;;;;;5089735;28;20028;-56
2022/04/28 01:18:32;;;;;;;5.93;4.20;;;;;;;;;;5095774;28;20055;-57
2022/04/28 01:21:09;;;;;;;11.52;5.82;;;;;;;;;;5086073;28;20028;-57
2022/04/28 01:27:12;;;;;;;6.90;5.65;;;;;;;;;;5077018;28;20376;-58
2022/04/28 01:35:23;;;;;;;6.63;5.40;;;;;;;;;;5128202;28;20112;-57
2022/04/28 01:38:04;;;;;;;6.55;5.82;;;;;;;;;;5128073;28;20079;-57
2022/04/28 01:43:48;;;;;;;7.57;5.70;;;;;;;;;;5099052;28;20055;-55
2022/04/28 01:46:29;;;;;;;7.03;5.95;;;;;;;;;;5109957;28;20130;-57
2022/04/28 01:55:19;;;;;;;9.23;7.65;;;;;;;;;;5128042;28;20053;-56
2022/04/28 01:57:55;;;;;;;8.93;6.78;;;;;;;;;;5127584;28;20027;-56
2022/04/28 02:00:34;;;;;;;7.25;6.47;;;;;;;;;;5127683;28;20060;-56
2022/04/28 02:03:26;;;;;;;9.13;6.53;;;;;;;;;;5128195;28;20092;-57
2022/04/28 02:05:59;;;;;;;8.13;6.90;;;;;;;;;;5124203;28;20061;-56
2022/04/28 02:11:56;;;;;;;7.43;6.55;;;;;;;;;;5093492;28;20091;-57
2022/04/28 02:17:14;;;;;;;10.52;8.38;;;;;;;;;;5119762;28;20031;-55
2022/04/28 02:20:02;;;;;;;8.13;6.85;;;;;;;;;;5131472;28;20031;-54
2022/04/28 02:22:52;;;;;;;7.60;6.72;;;;;;;;;;5131783;28;20035;-58
2022/04/28 02:25:53;;;;;;;7.70;6.30;;;;;;;;;;5132161;28;20034;-57
2022/04/28 02:28:23;;;;;;;;;;;;;;;;;;5132083;28;20068;-57
2022/04/28 02:30:59;;;;;;;10.68;7.28;;;;;;;;;;5112996;28;19903;-57
2022/04/28 02:33:46;;;;;;;13.15;7.15;;;;;;;;;;5108994;28;20103;-57
2022/04/28 02:36:57;;;;;;;9.18;7.65;;;;;;;;;;5112979;28;20100;-58
2022/04/28 02:42:38;;;;;;;8.48;7.43;;;;;;;;;;5113030;28;20047;-57
2022/04/28 02:45:33;;;;;;;9.00;7.17;;;;;;;;;;5130668;28;20049;-57
2022/04/28 02:48:18;;;;;;;11.70;7.72;;;;;;;;;;5131031;28;20028;-55
2022/04/28 02:51:01;;;;;;;8.45;7.25;;;;;;;;;;5112418;28;20059;-56
2022/04/28 02:53:52;;;;;;;9.25;7.10;;;;;;;;;;5131112;28;20016;-58
2022/04/28 02:59:34;;;;;;;8.57;7.78;;;;;;;;;;5075045;28;20056;-56
2022/04/28 03:05:14;;;;;;;9.30;7.13;;;;;;;;;;5108894;28;20032;-56
2022/04/28 03:11:00;;;;;;;11.17;8.27;;;;;;;;;;5130593;28;20035;-56
2022/04/28 03:13:41;;;;;;;10.65;8.68;;;;;;;;;;5087696;28;20274;-57
2022/04/28 03:16:30;;;;;;;9.65;7.63;;;;;;;;;;5087381;28;20037;-54
2022/04/28 03:22:09;;;;;;;8.57;7.38;;;;;;;;;;5060405;28;20094;-57
2022/04/28 03:24:54;;;;;;;9.38;7.38;;;;;;;;;;5088153;28;20033;-57
2022/04/28 03:27:39;;;;;;;9.48;8.52;;;;;;;;;;5087778;28;20478;-57
2022/04/28 03:30:21;;;;;;;10.02;8.18;;;;;;;;;;5086837;28;20028;-56
2022/04/28 03:33:05;;;;;;;8.98;7.53;;;;;;;;;;5072361;28;20040;-57
2022/04/28 03:35:41;;;;;;;9.13;8.23;;;;;;;;;;5054016;28;20136;-55
2022/04/28 03:38:19;;;;;;;10.27;8.38;;;;;;;;;;5054188;28;20424;-56
2022/04/28 03:41:12;;;;;;;8.77;7.63;;;;;;;;;;5046599;28;20576;-57
2022/04/28 03:46:45;;;;;;;9.57;8.60;;;;;;;;;;5053417;28;20029;-56
2022/04/28 03:49:27;;;;;;;9.68;8.25;;;;;;;;;;5054114;28;20118;-55
2022/04/28 03:54:54;;;;;;;8.88;7.95;;;;;;;;;;5054341;28;20039;-57
2022/04/28 03:57:45;;;;;;;8.88;7.40;;;;;;;;;;5096109;28;20525;-56
2022/04/28 04:06:51;;;;;;;;;;;;;;;;;;;;;
2022/04/28 04:12:43;;;;;;;11.15;7.25;;;;;;;;;;5063087;28;20036;-56
2022/04/28 04:15:30;;;;;;;8.38;7.40;;;;;;;;;;5077239;28;20576;-57
2022/04/28 04:18:28;;;;;;;9.85;8.00;;;;;;;;;;5077335;28;20085;-57
2022/04/28 04:21:23;;;;;;;10.40;7.72;;;;;;;;;;5096255;28;20454;-57
2022/04/28 04:32:59;;;;;;;11.85;9.38;;;;;;;;;;5094426;28;20055;-56
2022/04/28 04:35:39;;;;;;;9.27;8.25;;;;;;;;;;5091740;28;20659;-56
2022/04/28 04:38:33;;;;;;;;;;;;;;;;;;;;;
2022/04/28 04:41:15;;;;;;;10.48;8.68;;;;;;;;;;5115425;28;20360;-56
2022/04/28 04:44:02;;;;;;;8.90;7.60;;;;;;;;;;5099031;28;20384;-56
2022/04/28 04:46:52;;;;;;;9.75;8.75;;;;;;;;;;5096123;28;20446;-57
2022/04/28 04:49:45;;;;;;;9.90;8.57;;;;;;;;;;5096236;28;20040;-57
2022/04/28 04:52:29;;;;;;;10.00;8.32;;;;;;;;;;5095379;28;20036;-56
2022/04/28 04:55:21;;;;;;;;;;;;;;;;;;;;;
2022/04/28 04:57:56;;;;;;;8.95;7.45;;;;;;;;;;5114863;28;20034;-57
2022/04/28 05:00:36;;;;;;;9.95;7.20;;;;;;;;;;5096908;28;20058;-55
2022/04/28 05:03:27;;;;;;;;;;;;;;;;;;;;;
2022/04/28 05:09:44;;;;;;;8.95;8.05;;;;;;;;;;5051996;28;20033;-58
2022/04/28 05:12:30;;;;;;;11.55;9.60;;;;;;;;;;5054852;28;20127;-58
2022/04/28 05:17:55;;;;;;;9.85;8.63;;;;;;;;;;5071697;28;20064;-57
2022/04/28 05:20:50;;;;;;;11.82;8.48;;;;;;;;;;5077749;28;20105;-58
2022/04/28 05:26:51;;;;;;;8.05;6.93;;;;;;;;;;5090491;28;20034;-56
2022/04/28 05:29:23;;;;;;;8.35;6.43;;;;;;;;;;5114168;28;20106;-56
2022/04/28 05:31:56;;;;;;;13.52;7.57;;;;;;;;;;5114851;28;20024;-55
2022/04/28 05:34:38;;;;;;;7.35;6.22;;;;;;;;;;5113996;28;20661;-56
2022/04/28 05:37:19;;;;;;;7.82;5.53;;;;;;;;;;5115031;28;20111;-56
2022/04/28 05:57:34;;;;;;;5.03;4.35;;;;;;;;;;5034036;28;20063;-57
2022/04/28 06:03:41;;;;;;;5.32;4.70;;;;;;;;;;5052548;28;20068;-58
2022/04/28 06:06:07;;;;;;;5.82;5.20;;;;;;;;;;5039693;28;20458;-57
2022/04/28 06:08:59;;;;;;;5.50;4.63;;;;;;;;;;5038510;28;20132;-56
2022/04/28 06:11:49;;;;;;;7.30;4.22;;;;;;;;;;5056122;28;20037;-55
2022/04/28 06:14:15;;;;;;;5.78;4.80;;;;;;;;;;5056134;28;20044;-56
2022/04/28 06:17:13;;;;;;;5.75;4.60;;;;;;;;;;5055481;28;20056;-58
2022/04/28 06:26:07;;;;;;;11.45;4.43;;;;;;;;;;5109902;28;20028;-58
2022/04/28 06:29:03;;;;;;;6.00;4.88;;;;;;;;;;5106581;28;20428;-56
2022/04/28 06:31:47;;;;;;;6.15;5.10;;;;;;;;;;5117822;28;20469;-58
2022/04/28 06:34:33;;;;;;;6.88;4.82;;;;;;;;;;5103009;28;20080;-58
2022/04/28 06:37:11;;;;;;;6.68;4.20;;;;;;;;;;5099252;28;20031;-57
2022/04/28 06:39:57;;;;;;;6.35;4.93;;;;;;;;;;5081028;28;20474;-57
2022/04/28 06:46:16;;;;;;;5.32;4.70;;;;;;;;;;5118943;28;20054;-57
2022/04/28 06:49:01;;;;;;;6.93;4.60;;;;;;;;;;5116992;28;20031;-57
2022/04/28 06:52:12;;;;;;;8.55;5.55;;;;;;;;;;5117326;28;20069;-56
2022/04/28 06:55:05;;;;;;;5.63;4.53;;;;;;;;;;5098282;28;20020;-58
2022/04/28 06:57:51;;;;;;;9.15;3.97;;;;;;;;;;5112069;28;20039;-58
2022/04/28 07:03:41;;;;;;;;;;;;;;;;;;;;;
2022/04/28 07:06:35;;;;;;;;;;;;;;;;;;;;;
2022/04/28 07:09:23;;;;;;;7.22;4.60;;;;;;;;;;5116674;28;20038;-58
2022/04/28 07:12:00;;;;;;;6.15;4.90;;;;;;;;;;5098955;28;20031;-57
2022/04/28 07:14:52;;;;;;;6.90;5.97;;;;;;;;;;5081277;28;20027;-56
2022/04/28 07:17:35;;;;;;;9.18;5.22;;;;;;;;;;5116880;28;20026;-57
2022/04/28 07:20:21;;;;;;;6.10;5.20;;;;;;;;;;5117428;28;20081;-57
2022/04/28 07:23:21;;;;;;;5.78;4.97;;;;;;;;;;5116468;28;20028;-59
2022/04/28 07:26:23;;;;;;;8.15;5.80;;;;;;;;;;5115933;28;20497;-59
2022/04/28 07:29:10;;;;;;;7.53;5.28;;;;;;;;;;5075985;28;20028;-57
2022/04/28 07:31:54;;;;;;;7.30;5.10;;;;;;;;;;5116067;28;20020;-58
2022/04/28 07:34:47;;;;;;;8.23;5.45;;;;;;;;;;5107827;28;20084;-58
2022/04/28 07:37:25;;;;;;;7.55;5.28;;;;;;;;;;4998815;28;20046;-58
2022/04/28 07:40:10;;;;;;;7.03;5.18;;;;;;;;;;5094925;28;20398;-58
2022/04/28 07:45:51;;;;;;;7.00;4.70;;;;;;;;;;5095940;28;20101;-58
2022/04/28 07:51:44;;;;;;;10.38;5.40;;;;;;;;;;5032828;28;20065;-58
2022/04/28 07:57:32;;;;;;;9.38;5.78;;;;;;;;;;5080572;28;20036;-58
2022/04/28 08:00:23;;;;;;;;;;;;;;;;;;;;;
2022/04/28 08:02:59;;;;;;;5.70;5.00;;;;;;;;;;5033625;28;20029;-58
2022/04/28 08:05:45;;;;;;;6.20;4.10;;;;;;;;;;5054578;28;20477;-58
2022/04/28 08:08:27;;;;;;;;;;;;;;;;;;;;;
2022/04/28 08:11:07;;;;;;;7.45;4.60;;;;;;;;;;5053323;28;20459;-59
2022/04/28 08:14:08;;;;;;;6.43;5.67;;;;;;;;;;5053802;28;20032;-58
2022/04/28 08:16:48;;;;;;;5.63;5.10;;;;;;;;;;5052304;28;20278;-59
2022/04/28 08:19:33;;;;;;;5.38;4.07;;;;;;;;;;5013573;28;20456;-58
2022/04/28 08:22:15;;;;;;;15.80;4.95;;;;;;;;;;4997461;28;20116;-58
2022/04/28 08:25:09;;;;;;;;;;;;;;;;;;;;;
2022/04/28 08:28:00;;;;;;;4.32;3.80;;;;;;;;;;5013862;28;20101;-59
2022/04/28 08:30:51;;;;;;;4.40;3.60;;;;;;;;;;5013640;28;20484;-59
2022/04/28 08:33:27;;;;;;;6.10;4.15;;;;;;;;;;5004748;28;20037;-58
2022/04/28 08:39:19;;;;;;;5.13;3.63;;;;;;;;;;4993827;28;20042;-58
2022/04/28 08:41:59;;;;;;;4.75;4.20;;;;;;;;;;5023659;28;20045;-58
2022/04/28 08:50:48;;;;;;;4.68;3.95;;;;;;;;;;5079235;28;20031;-59
2022/04/28 08:53:48;;;;;;;5.38;3.80;;;;;;;;;;5095648;28;20033;-58
2022/04/28 08:56:43;;;;;;;5.03;3.92;;;;;;;;;;5077322;28;20128;-58
2022/04/28 09:02:34;;;;;;;4.05;2.88;;;;;;;;;;4993119;28;20045;-58
2022/04/28 09:05:21;;;;;;;4.40;3.53;;;;;;;;;;4940053;29;20056;-58
2022/04/28 09:08:15;;;;;;;4.45;2.90;;;;;;;;;;4934853;29;20035;-59
2022/04/28 09:11:00;;;;;;;3.78;2.75;;;;;;;;;;4934766;29;20066;-58
2022/04/28 09:16:23;;;;;;;;;;;;;;;;;;4955020;28;20037;-58
2022/04/28 09:18:53;;;;;;;3.90;3.17;;;;;;;;;;5045731;28;19904;-58
2022/04/28 09:21:45;;;;;;;4.25;2.72;;;;;;;;;;5094255;28;20047;-57
2022/04/28 09:24:19;;;;;;;3.72;2.75;;;;;;;;;;5094421;28;20064;-57
2022/04/28 09:27:11;;;;;;;;;;;;;;;;;;;;;
2022/04/28 09:29:49;;;;;;;3.75;2.72;;;;;;;;;;5081873;28;20032;-57
2022/04/28 09:32:24;;;;;;;5.43;3.13;;;;;;;;;;5094189;28;20388;-57
2022/04/28 09:35:00;;;;;;;3.08;2.60;;;;;;;;;;5094016;28;20020;-57
2022/04/28 09:37:36;;;;;;;5.80;3.15;;;;;;;;;;5097875;28;20051;-57
2022/04/28 09:43:20;;;;;;;3.65;2.65;;;;;;;;;;5104990;28;20108;-58
2022/04/28 09:46:09;;;;;;;3.42;2.42;;;;;;;;;;5114426;28;20047;-58
2022/04/28 09:48:57;;;;;;;3.42;2.65;;;;;;;;;;5089620;28;20039;-58
2022/04/28 09:51:46;;;;;;;3.58;2.85;;;;;;;;;;5095473;28;20104;-58
2022/04/28 09:54:17;;;;;;;3.80;3.30;;;;;;;;;;5095816;28;20027;-58
2022/04/28 09:56:52;;;;;;;7.18;3.15;;;;;;;;;;5095335;28;20073;-58
2022/04/28 10:02:28;;;;;;;4.13;2.85;;;;;;;;;;5114791;28;20040;-59
2022/04/28 10:06:07;;;;;;;5.20;2.85;;;;;;;;;;5060699;28;20461;-59
2022/04/28 10:08:17;;;;;;;;;;;;;;;;;;;;;
2022/04/28 10:11:04;;;;;;;4.38;3.00;;;;;;;;;;5093716;28;20047;-59
2022/04/28 10:17:11;;;;;;;4.82;2.30;;;;;;;;;;5078325;28;20032;-59
2022/04/28 10:19:53;;;;;;;2.90;2.33;;;;;;;;;;4994883;28;20030;-59
2022/04/28 10:34:20;;;;;;;4.30;2.78;;;;;;;;;;5051187;28;20035;-59
2022/04/28 10:40:51;;;;;;;3.28;2.15;;;;;;;;;;5006850;28;20113;-59
2022/04/28 10:44:04;;;;;;;3.42;2.55;;;;;;;;;;4989254;28;20045;-59
2022/04/28 10:47:02;;;;;;;4.70;2.70;;;;;;;;;;4956533;29;20437;-59
2022/04/28 10:56:18;;;;;;;7.55;2.67;;;;;;;;;;5015616;28;20428;-59
2022/04/28 11:04:39;;;;;;;3.95;2.50;;;;;;;;;;5015562;28;20120;-59
2022/04/28 11:07:20;;;;;;;2.88;1.95;;;;;;;;;;5022020;28;20065;-58
2022/04/28 11:09:56;;;;;;;3.85;2.40;;;;;;;;;;5038535;28;20602;-58
2022/04/28 11:12:42;;;;;;;3.35;2.42;;;;;;;;;;5059987;28;20048;-58
2022/04/28 11:15:10;;;;;;;2.92;2.20;;;;;;;;;;5068297;28;20048;-58
2022/04/28 11:18:04;;;;;;;2.88;2.40;;;;;;;;;;5080178;28;20156;-58
2022/04/28 11:20:36;;;;;;;3.75;2.42;;;;;;;;;;5097889;28;20066;-59
2022/04/28 11:32:43;;;;;;;3.10;2.38;;;;;;;;;;5109628;28;20108;-58
2022/04/28 11:38:21;;;;;;;;;;;;;;;;;;5084928;28;20067;-59
2022/04/28 11:41:10;;;;;;;3.45;2.65;;;;;;;;;;5108317;28;19967;-58
2022/04/28 11:44:06;;;;;;;2.70;1.95;;;;;;;;;;5107769;28;20047;-58
2022/04/28 11:49:45;;;;;;;4.00;2.83;;;;;;;;;;5084640;28;20032;-58
2022/04/28 11:52:20;;;;;;;2.80;2.00;;;;;;;;;;5107885;28;20024;-58
2022/04/28 11:55:08;;;;;;;3.20;2.17;;;;;;;;;;5116009;28;20028;-59
2022/04/28 12:01:02;;;;;;;4.80;2.30;;;;;;;;;;5062434;28;20029;-59
2022/04/28 12:03:51;;;;;;;2.90;1.75;;;;;;;;;;5062699;28;20071;-59
2022/04/28 12:07:01;;;;;;;5.32;2.28;;;;;;;;;;5054457;28;20093;-59
2022/04/28 12:21:57;;;;;;;2.40;1.75;;;;;;;;;;5115676;28;20382;-59
2022/04/28 12:24:40;;;;;;;3.05;2.33;;;;;;;;;;5115130;28;20035;-59
2022/04/28 12:27:48;;;;;;;4.60;2.65;;;;;;;;;;5095911;28;20493;-59
2022/04/28 12:33:12;;;;;;;5.18;2.28;;;;;;;;;;5115541;28;20066;-59
2022/04/28 12:36:04;;;;;;;3.92;2.72;;;;;;;;;;5116012;28;20358;-59
2022/04/28 12:38:37;;;;;;;3.20;2.47;;;;;;;;;;5096520;28;20381;-59
2022/04/28 12:41:32;;;;;;;4.60;2.42;;;;;;;;;;5115747;28;20057;-59
2022/04/28 12:43:59;;;;;;;3.75;2.50;;;;;;;;;;5115304;28;20459;-59
2022/04/28 12:46:55;;;;;;;2.38;1.98;;;;;;;;;;5114413;28;20107;-59
2022/04/28 12:49:50;;;;;;;3.00;2.30;;;;;;;;;;5091065;28;20036;-59
2022/04/28 12:52:35;;;;;;;4.32;2.65;;;;;;;;;;5075983;28;20380;-59
2022/04/28 12:58:09;;;;;;;3.15;2.20;;;;;;;;;;5051379;28;20037;-59
2022/04/28 13:01:22;;;;;;;2.95;1.60;;;;;;;;;;5031887;28;20479;-59
2022/04/28 13:04:00;;;;;;;3.25;2.40;;;;;;;;;;5038998;28;20041;-59
2022/04/28 13:06:40;;;;;;;3.05;2.28;;;;;;;;;;5050606;28;20033;-59
2022/04/28 13:09:29;;;;;;;3.50;2.28;;;;;;;;;;5035253;28;20036;-59
2022/04/28 13:12:29;;;;;;;3.15;2.45;;;;;;;;;;5052268;28;20033;-59
2022/04/28 13:18:10;;;;;;;4.05;2.70;;;;;;;;;;5052397;28;20048;-60
2022/04/28 13:20:54;;;;;;;;;;;;;;;;;;;;;
2022/04/28 13:23:20;;;;;;;3.40;2.40;;;;;;;;;;5067826;28;20033;-59
2022/04/28 13:26:09;;;;;;;3.30;2.22;;;;;;;;;;5072310;28;20064;-59
2022/04/28 13:28:41;;;;;;;3.53;2.28;;;;;;;;;;5089913;28;20028;-60
2022/04/28 13:35:03;;;;;;;3.83;2.17;;;;;;;;;;5051850;28;20041;-59
2022/04/28 13:41:01;;;;;;;4.20;2.53;;;;;;;;;;5106585;28;20373;-59
2022/04/28 13:43:37;;;;;;;2.88;2.05;;;;;;;;;;5094307;28;20032;-59
2022/04/28 13:46:38;;;;;;;;;;;;;;;;;;;;;
2022/04/28 13:49:05;;;;;;;3.55;2.60;;;;;;;;;;5111162;28;20107;-59
2022/04/28 13:51:45;;;;;;;3.53;2.50;;;;;;;;;;5071932;28;20543;-59
2022/04/28 13:57:39;;;;;;;4.30;1.95;;;;;;;;;;5016641;28;20087;-59
2022/04/28 14:03:35;;;;;;;3.67;2.65;;;;;;;;;;5076947;28;20029;-59
2022/04/28 14:06:18;;;;;;;3.05;2.33;;;;;;;;;;5081678;28;20044;-60
2022/04/28 14:08:50;;;;;;;3.08;2.25;;;;;;;;;;5081819;28;20048;-59
2022/04/28 14:11:51;;;;;;;3.15;2.40;;;;;;;;;;5081609;28;20040;-59
2022/04/28 14:14:50;;;;;;;;;;;;;;;;;;;;;
2022/04/28 14:17:20;;;;;;;4.70;3.50;;;;;;;;;;5083840;28;20092;-59
2022/04/28 14:22:50;;;;;;;3.58;2.47;;;;;;;;;;5108859;28;20165;-58
2022/04/28 14:25:45;;;;;;;3.67;2.80;;;;;;;;;;5123300;28;20019;-57
2022/04/28 14:28:22;;;;;;;4.07;3.28;;;;;;;;;;5111802;28;20538;-58
2022/04/28 14:31:42;;;;;;;3.92;2.80;;;;;;;;;;5102634;28;20058;-59
2022/04/28 14:34:01;;;;;;;3.55;2.35;;;;;;;;;;5110152;28;20118;-58
2022/04/28 14:39:42;;;;;;;3.30;2.58;;;;;;;;;;5126431;28;20503;-58
2022/04/28 14:42:18;;;;;;;4.45;2.63;;;;;;;;;;5129902;28;20023;-58
2022/04/28 14:45:00;;;;;;;4.13;2.45;;;;;;;;;;5130368;28;20039;-58
2022/04/28 14:47:41;;;;;;;5.95;2.08;;;;;;;;;;5110905;28;20031;-59
2022/04/28 14:54:03;;;;;;;4.05;2.33;;;;;;;;;;5128503;28;20085;-58
2022/04/28 14:56:55;;;;;;;3.88;2.78;;;;;;;;;;5027071;28;20433;-58
2022/04/28 14:59:38;;;;;;;3.53;2.85;;;;;;;;;;5009311;28;20033;-58
2022/04/28 15:02:16;;;;;;;2.85;2.25;;;;;;;;;;5112156;28;20043;-58
2022/04/28 15:05:03;;;;;;;3.50;2.60;;;;;;;;;;5086697;28;20051;-59
2022/04/28 15:13:10;;;;;;;3.38;2.45;;;;;;;;;;5086115;28;20059;-58
2022/04/28 15:15:53;;;;;;;3.08;2.28;;;;;;;;;;5086145;28;20024;-59
2022/04/28 15:18:54;;;;;;;2.95;2.38;;;;;;;;;;5082949;28;20024;-58
2022/04/28 15:21:36;;;;;;;4.90;2.80;;;;;;;;;;5064593;28;20033;-59
2022/04/28 15:24:11;;;;;;;2.35;1.83;;;;;;;;;;5082980;28;20043;-58
2022/04/28 15:27:14;;;;;;;3.55;2.58;;;;;;;;;;5084522;28;20036;-58
2022/04/28 15:30:14;;;;;;;4.15;3.15;;;;;;;;;;5070578;28;20036;-59
2022/04/28 15:33:03;;;;;;;4.47;2.42;;;;;;;;;;5065922;28;20178;-59
2022/04/28 15:35:38;;;;;;;3.80;2.40;;;;;;;;;;5088231;28;20095;-59
2022/04/28 15:38:31;;;;;;;3.65;2.03;;;;;;;;;;5130212;28;20027;-59
2022/04/28 15:41:37;;;;;;;3.28;2.60;;;;;;;;;;5109580;28;20053;-59
2022/04/28 15:44:19;;;;;;;3.75;2.50;;;;;;;;;;5106750;28;20066;-59
2022/04/28 15:50:07;;;;;;;2.88;1.90;;;;;;;;;;5108997;28;20046;-59
2022/04/28 15:56:02;;;;;;;3.45;2.50;;;;;;;;;;5104448;28;20043;-59
2022/04/28 15:58:34;;;;;;;3.10;2.30;;;;;;;;;;5107856;28;20027;-59
2022/04/28 16:01:19;;;;;;;3.85;2.35;;;;;;;;;;5091315;28;20031;-58
2022/04/28 16:04:04;;;;;;;3.45;2.05;;;;;;;;;;5108906;28;20078;-58
2022/04/28 16:06:59;;;;;;;3.22;2.20;;;;;;;;;;5107277;28;20077;-58
2022/04/28 16:12:42;;;;;;;3.45;2.25;;;;;;;;;;5082598;28;20043;-58
2022/04/28 16:15:45;;;;;;;3.05;2.10;;;;;;;;;;5108363;28;20062;-58
2022/04/28 16:18:30;;;;;;;3.88;2.25;;;;;;;;;;5089392;28;20039;-58
2022/04/28 16:20:58;;;;;;;2.83;1.90;;;;;;;;;;5107177;28;20024;-58
2022/04/28 16:23:41;;;;;;;3.72;2.50;;;;;;;;;;5108406;28;20187;-58
2022/04/28 16:26:40;;;;;;;3.28;2.15;;;;;;;;;;5104884;28;20028;-58
2022/04/28 16:29:27;;;;;;;2.67;1.98;;;;;;;;;;5091881;28;20031;-59
2022/04/28 16:32:03;;;;;;;3.88;2.25;;;;;;;;;;5088487;28;20032;-59
2022/04/28 16:35:07;;;;;;;3.95;2.65;;;;;;;;;;5108405;28;20353;-59
2022/04/28 16:38:15;;;;;;;4.03;2.47;;;;;;;;;;5107296;28;20036;-59
2022/04/28 16:40:42;;;;;;;3.50;2.10;;;;;;;;;;5127822;28;20072;-59
2022/04/28 16:43:21;;;;;;;3.20;2.10;;;;;;;;;;5128240;28;20077;-59
2022/04/28 16:49:13;;;;;;;2.88;2.05;;;;;;;;;;5097940;28;20024;-59
2022/04/28 16:54:54;;;;;;;3.08;2.25;;;;;;;;;;5117462;28;20050;-59
2022/04/28 16:57:33;;;;;;;4.18;2.35;;;;;;;;;;5128351;28;20027;-59
2022/04/28 17:09:24;;;;;;;;;;;;;;;;;;;;;
2022/04/28 17:12:02;;;;;;;5.45;2.38;;;;;;;;;;5122497;28;20060;-59
2022/04/28 17:14:51;;;;;;;5.85;2.50;;;;;;;;;;5084371;28;20060;-59
2022/04/28 17:23:13;;;;;;;2.83;1.83;;;;;;;;;;5079965;28;20040;-58
2022/04/28 17:29:04;;;;;;;4.07;2.22;;;;;;;;;;5014441;28;20054;-59
2022/04/28 17:32:12;;;;;;;4.03;2.67;;;;;;;;;;5085615;28;20116;-59
2022/04/28 17:34:48;;;;;;;4.60;2.78;;;;;;;;;;5084992;28;20073;-59
2022/04/28 17:37:18;;;;;;;3.17;2.30;;;;;;;;;;5025693;28;20076;-58
2022/04/28 17:40:21;;;;;;;2.60;2.13;;;;;;;;;;4998082;28;20090;-59
2022/04/28 17:43:02;;;;;;;2.92;2.38;;;;;;;;;;4946208;29;20044;-58
2022/04/28 17:49:01;;;;;;;2.88;1.95;;;;;;;;;;4985949;28;20431;-59
2022/04/28 18:00:28;;;;;;;4.60;2.72;;;;;;;;;;4989857;28;20118;-57
2022/04/28 18:03:07;;;;;;;4.25;2.40;;;;;;;;;;4979400;28;20039;-57
2022/04/28 18:05:56;;;;;;;4.60;2.97;;;;;;;;;;5009875;28;20031;-57
2022/04/28 18:08:45;;;;;;;4.75;2.90;;;;;;;;;;5009351;28;20038;-58
2022/04/28 18:11:27;;;;;;;4.50;2.92;;;;;;;;;;5009218;28;20026;-61
2022/04/28 18:14:05;;;;;;;5.78;3.17;;;;;;;;;;5000045;28;20037;-57
2022/04/28 18:20:33;;;;;;;;;;;;;;;;;;;;;
2022/04/28 18:23:37;;;;;;;3.13;2.50;;;;;;;;;;5048909;28;20101;-58
2022/04/28 18:26:26;;;;;;;;;;;;;;;;;;;;;
2022/04/28 18:28:53;;;;;;;4.93;2.85;;;;;;;;;;5110747;28;20048;-58
2022/04/28 18:31:41;;;;;;;3.20;2.75;;;;;;;;;;5109040;28;20435;-58
2022/04/28 18:34:36;;;;;;;3.10;2.15;;;;;;;;;;5109384;28;20028;-58
2022/04/28 18:48:44;;;;;;;4.25;2.67;;;;;;;;;;5131052;28;20058;-58
2022/04/28 18:57:05;;;;;;;7.20;3.00;;;;;;;;;;5117669;28;20088;-58
2022/04/28 19:00:02;;;;;;;4.50;3.22;;;;;;;;;;5117448;28;20032;-58
2022/04/28 19:02:37;;;;;;;4.80;3.60;;;;;;;;;;5115005;28;20059;-58
2022/04/28 19:05:30;;;;;;;4.13;2.72;;;;;;;;;;5115057;28;20050;-58
2022/04/28 19:08:15;;;;;;;3.78;2.88;;;;;;;;;;5086248;28;20032;-58
2022/04/28 19:13:46;;;;;;;7.32;3.17;;;;;;;;;;5054300;28;20033;-59
2022/04/28 19:16:30;;;;;;;4.57;2.38;;;;;;;;;;5074539;28;20028;-59
2022/04/28 19:19:06;;;;;;;4.88;2.90;;;;;;;;;;5072441;28;20094;-59
2022/04/28 19:21:41;;;;;;;3.20;2.55;;;;;;;;;;5057391;28;20033;-59
2022/04/28 19:24:44;;;;;;;3.03;2.35;;;;;;;;;;5094301;28;20048;-59
2022/04/28 19:27:35;;;;;;;3.92;2.88;;;;;;;;;;5076491;28;20032;-59
2022/04/28 19:30:03;;;;;;;;;;;;;;;;;;5117730;28;20524;-58
2022/04/28 19:35:28;;;;;;;4.60;2.95;;;;;;;;;;5113819;28;20440;-59
2022/04/28 19:38:40;;;;;;;4.13;3.58;;;;;;;;;;5098071;28;20038;-61
2022/04/28 19:41:10;;;;;;;4.90;3.22;;;;;;;;;;5078041;28;20501;-58
2022/04/28 19:43:39;;;;;;;3.33;2.28;;;;;;;;;;5088699;28;20085;-58
2022/04/28 19:55:40;;;;;;;4.35;2.90;;;;;;;;;;5020140;28;20060;-58
2022/04/28 19:58:09;;;;;;;2.97;2.17;;;;;;;;;;4994992;28;20591;-59
2022/04/28 20:03:59;;;;;;;3.20;2.45;;;;;;;;;;5010285;28;20172;-59
2022/04/28 20:10:35;;;;;;;4.13;3.28;;;;;;;;;;5025892;28;20099;-59
2022/04/28 20:16:12;;;;;;;5.85;3.08;;;;;;;;;;5057872;28;20053;-59
2022/04/28 20:18:51;;;;;;;5.15;3.58;;;;;;;;;;5094851;28;20412;-59
2022/04/28 20:21:31;;;;;;;4.40;3.72;;;;;;;;;;5107493;28;20032;-58
2022/04/28 20:24:47;;;;;;;4.70;3.53;;;;;;;;;;5108834;28;20056;-59
2022/04/28 20:30:16;;;;;;;;;;;;;;;;;;5108633;28;20112;-58
2022/04/28 20:33:18;;;;;;;4.88;3.70;;;;;;;;;;5108908;28;19908;-58
2022/04/28 20:36:18;;;;;;;5.32;3.90;;;;;;;;;;5083457;28;20059;-58
2022/04/28 20:38:44;;;;;;;5.22;3.40;;;;;;;;;;5030129;28;20026;-59
2022/04/28 20:41:19;;;;;;;5.53;4.50;;;;;;;;;;5106171;28;20044;-58
2022/04/28 20:44:12;;;;;;;4.78;3.30;;;;;;;;;;5128425;28;20035;-58
2022/04/28 20:47:11;;;;;;;4.90;4.25;;;;;;;;;;5090781;28;20031;-58
2022/04/28 20:50:16;;;;;;;5.22;3.22;;;;;;;;;;5055616;28;20036;-59
2022/04/28 20:52:49;;;;;;;6.88;3.53;;;;;;;;;;5127532;28;20084;-59
2022/04/28 20:55:44;;;;;;;4.03;3.63;;;;;;;;;;5128593;28;20027;-59
2022/04/28 20:58:17;;;;;;;5.35;4.10;;;;;;;;;;5026115;28;20034;-58
2022/04/28 21:00:47;;;;;;;4.43;3.67;;;;;;;;;;5076644;28;20054;-59
2022/04/28 21:03:20;;;;;;;;;;;;;;;;;;5129347;28;20372;-58
2022/04/28 21:06:11;;;;;;;7.10;3.35;;;;;;;;;;5129429;28;19971;-59
2022/04/28 21:11:46;;;;;;;5.53;3.83;;;;;;;;;;5101358;28;20034;-59
2022/04/28 21:14:21;;;;;;;6.65;4.07;;;;;;;;;;5126975;28;20036;-60
2022/04/28 21:20:07;;;;;;;4.70;4.18;;;;;;;;;;5115236;28;20036;-59
2022/04/28 21:25:45;;;;;;;6.05;4.60;;;;;;;;;;5128780;28;20249;-59
2022/04/28 21:31:31;;;;;;;7.07;4.38;;;;;;;;;;5129036;28;20050;-59
2022/04/28 21:34:23;;;;;;;5.93;3.47;;;;;;;;;;5111085;28;20033;-59
2022/04/28 21:39:48;;;;;;;5.57;3.97;;;;;;;;;;5118443;28;20052;-59
2022/04/28 21:42:41;;;;;;;4.72;3.78;;;;;;;;;;5127366;28;20024;-59
2022/04/28 21:45:17;;;;;;;7.07;3.97;;;;;;;;;;5107971;28;20119;-59
2022/04/28 21:48:15;;;;;;;5.22;3.78;;;;;;;;;;5127599;28;20024;-59
2022/04/28 21:51:05;;;;;;;5.35;4.35;;;;;;;;;;5024672;28;20072;-59
2022/04/28 21:53:47;;;;;;;6.93;4.63;;;;;;;;;;5026564;28;20034;-59
2022/04/28 21:56:44;;;;;;;5.25;3.70;;;;;;;;;;5026334;28;20499;-59
2022/04/28 21:59:28;;;;;;;11.45;6.97;;;;;;;;;;5026343;28;20022;-59
2022/04/28 22:02:10;;;;;;;8.48;6.93;;;;;;;;;;5025835;28;20045;-58
2022/04/28 22:16:55;;;;;;;;;;;;;;;;;;;;;
2022/04/28 22:19:40;;;;;;;7.10;5.18;;;;;;;;;;5125748;28;20273;-59
2022/04/28 22:22:26;;;;;;;6.55;4.85;;;;;;;;;;5127381;28;20085;-59
2022/04/28 22:25:18;;;;;;;6.93;5.28;;;;;;;;;;5128498;28;20054;-59
2022/04/28 22:27:51;;;;;;;6.05;5.45;;;;;;;;;;5127768;28;20088;-59
2022/04/28 22:33:38;;;;;;;5.65;4.72;;;;;;;;;;5128616;28;20109;-59
2022/04/28 22:36:30;;;;;;;6.15;4.70;;;;;;;;;;5115046;28;20023;-59
2022/04/28 22:39:04;;;;;;;6.88;5.15;;;;;;;;;;5131141;28;20032;-59
2022/04/28 22:44:56;;;;;;;4.88;4.28;;;;;;;;;;5124072;28;20051;-59
2022/04/28 22:47:52;;;;;;;5.43;4.60;;;;;;;;;;5132093;28;20027;-59
2022/04/28 22:50:39;;;;;;;7.38;5.68;;;;;;;;;;5132176;28;20099;-59
2022/04/28 22:53:28;;;;;;;7.10;5.55;;;;;;;;;;5131857;28;20118;-59
2022/04/28 22:56:06;;;;;;;6.78;5.22;;;;;;;;;;5131284;28;20071;-59
2022/04/28 22:58:53;;;;;;;6.38;5.65;;;;;;;;;;5131103;28;20035;-59
2022/04/28 23:01:50;;;;;;;5.07;4.57;;;;;;;;;;5131089;28;20027;-59
2022/04/28 23:04:32;;;;;;;7.50;4.97;;;;;;;;;;5130913;28;20050;-59
2022/04/28 23:07:19;;;;;;;5.00;4.50;;;;;;;;;;5113763;28;20023;-58
2022/04/28 23:10:11;;;;;;;;;;;;;;;;;;;;;
2022/04/28 23:13:00;;;;;;;6.22;4.70;;;;;;;;;;5106176;28;20063;-59
2022/04/28 23:15:44;;;;;;;7.07;5.50;;;;;;;;;;5088294;28;20041;-59
2022/04/28 23:18:24;;;;;;;;;;;;;;;;;;;;;
2022/04/28 23:21:07;;;;;;;6.50;5.72;;;;;;;;;;5088547;28;20059;-59